sensor_id;sensor_type;location;lat;lon;timestamp;P1;durP1;ratioP1;P2;durP2;ratioP2
11086;SDS011;5597;47.588;9.642;2023-02-01T00:00:53;8.37;;;6.53;;
11086;SDS011;5597;47.588;9.642;2023-02-01T00:03:19;7.70;;;6.47;;
11086;SDS011;5597;47.588;9.642;2023-02-01T00:05:44;8.00;;;5.90;;
11086;SDS011;5597;47.588;9.642;2023-02-01T00:08:20;7.60;;;6.43;;
11086;SDS011;5597;47.588;9.642;2023-02-01T00:10:46;7.37;;;5.90;;
11086;SDS011;5597;47.588;9.642;2023-02-01T00:13:11;6.87;;;6.17;;
11086;SDS011;5597;47.588;9.642;2023-02-01T00:15:37;8.90;;;6.60;;
11086;SDS011;5597;47.588;9.642;2023-02-01T00:18:02;9.13;;;6.70;;
11086;SDS011;5597;47.588;9.642;2023-02-01T00:20:28;9.33;;;6.90;;
11086;SDS011;5597;47.588;9.642;2023-02-01T00:22:53;7.70;;;6.90;;
11086;SDS011;5597;47.588;9.642;2023-02-01T00:25:19;8.53;;;6.40;;
11086;SDS011;5597;47.588;9.642;2023-02-01T00:27:48;8.07;;;5.90;;
11086;SDS011;5597;47.588;9.642;2023-02-01T00:30:14;6.87;;;5.83;;
11086;SDS011;5597;47.588;9.642;2023-02-01T00:32:41;6.83;;;5.37;;
11086;SDS011;5597;47.588;9.642;2023-02-01T00:35:06;7.63;;;6.17;;
11086;SDS011;5597;47.588;9.642;2023-02-01T00:37:33;8.87;;;6.90;;
11086;SDS011;5597;47.588;9.642;2023-02-01T00:39:58;8.13;;;6.50;;
11086;SDS011;5597;47.588;9.642;2023-02-01T00:42:24;8.47;;;6.60;;
11086;SDS011;5597;47.588;9.642;2023-02-01T00:44:49;7.87;;;5.63;;
11086;SDS011;5597;47.588;9.642;2023-02-01T00:47:15;8.53;;;5.87;;
11086;SDS011;5597;47.588;9.642;2023-02-01T00:49:40;7.07;;;6.17;;
11086;SDS011;5597;47.588;9.642;2023-02-01T00:52:06;8.00;;;6.87;;
11086;SDS011;5597;47.588;9.642;2023-02-01T00:54:32;8.43;;;7.03;;
11086;SDS011;5597;47.588;9.642;2023-02-01T00:56:58;8.00;;;6.23;;
11086;SDS011;5597;47.588;9.642;2023-02-01T00:59:23;7.43;;;6.20;;
11086;SDS011;5597;47.588;9.642;2023-02-01T01:01:49;8.40;;;6.13;;
11086;SDS011;5597;47.588;9.642;2023-02-01T01:04:15;7.27;;;6.43;;
11086;SDS011;5597;47.588;9.642;2023-02-01T01:06:40;7.57;;;6.07;;
11086;SDS011;5597;47.588;9.642;2023-02-01T01:09:06;6.43;;;5.43;;
11086;SDS011;5597;47.588;9.642;2023-02-01T01:11:33;6.73;;;5.90;;
11086;SDS011;5597;47.588;9.642;2023-02-01T01:14:00;8.63;;;6.23;;
11086;SDS011;5597;47.588;9.642;2023-02-01T01:16:27;7.53;;;5.57;;
11086;SDS011;5597;47.588;9.642;2023-02-01T01:18:54;6.63;;;5.27;;
11086;SDS011;5597;47.588;9.642;2023-02-01T01:21:20;6.33;;;5.70;;
11086;SDS011;5597;47.588;9.642;2023-02-01T01:23:46;7.50;;;6.20;;
11086;SDS011;5597;47.588;9.642;2023-02-01T01:26:14;7.20;;;5.73;;
11086;SDS011;5597;47.588;9.642;2023-02-01T01:28:42;7.40;;;5.63;;
11086;SDS011;5597;47.588;9.642;2023-02-01T01:31:08;7.23;;;5.90;;
11086;SDS011;5597;47.588;9.642;2023-02-01T01:33:34;7.00;;;5.87;;
11086;SDS011;5597;47.588;9.642;2023-02-01T01:36:00;6.00;;;5.17;;
11086;SDS011;5597;47.588;9.642;2023-02-01T01:38:25;7.13;;;5.57;;
11086;SDS011;5597;47.588;9.642;2023-02-01T01:40:51;7.53;;;5.80;;
11086;SDS011;5597;47.588;9.642;2023-02-01T01:43:18;6.93;;;6.17;;
11086;SDS011;5597;47.588;9.642;2023-02-01T01:45:47;7.60;;;6.50;;
11086;SDS011;5597;47.588;9.642;2023-02-01T01:48:18;8.43;;;6.10;;
11086;SDS011;5597;47.588;9.642;2023-02-01T01:50:52;8.73;;;6.03;;
11086;SDS011;5597;47.588;9.642;2023-02-01T01:53:26;6.73;;;5.67;;
11086;SDS011;5597;47.588;9.642;2023-02-01T01:55:56;8.10;;;6.13;;
11086;SDS011;5597;47.588;9.642;2023-02-01T01:58:23;7.73;;;5.87;;
11086;SDS011;5597;47.588;9.642;2023-02-01T02:00:51;7.17;;;5.53;;
11086;SDS011;5597;47.588;9.642;2023-02-01T02:03:19;8.43;;;6.67;;
11086;SDS011;5597;47.588;9.642;2023-02-01T02:05:48;7.50;;;6.17;;
11086;SDS011;5597;47.588;9.642;2023-02-01T02:08:16;8.57;;;6.40;;
11086;SDS011;5597;47.588;9.642;2023-02-01T02:10:45;8.13;;;6.70;;
11086;SDS011;5597;47.588;9.642;2023-02-01T02:13:41;8.93;;;6.80;;
11086;SDS011;5597;47.588;9.642;2023-02-01T02:18:57;6.10;;;5.50;;
11086;SDS011;5597;47.588;9.642;2023-02-01T02:27:12;5.37;;;4.33;;
11086;SDS011;5597;47.588;9.642;2023-02-01T02:33:32;5.03;;;4.50;;
11086;SDS011;5597;47.588;9.642;2023-02-01T02:35:44;5.90;;;5.03;;
11086;SDS011;5597;47.588;9.642;2023-02-01T02:38:32;5.73;;;5.00;;
11086;SDS011;5597;47.588;9.642;2023-02-01T02:44:13;5.63;;;4.30;;
11086;SDS011;5597;47.588;9.642;2023-02-01T02:48:05;7.13;;;5.03;;
11086;SDS011;5597;47.588;9.642;2023-02-01T02:53:16;4.90;;;4.30;;
11086;SDS011;5597;47.588;9.642;2023-02-01T02:56:05;5.93;;;4.43;;
11086;SDS011;5597;47.588;9.642;2023-02-01T02:58:51;6.20;;;4.60;;
11086;SDS011;5597;47.588;9.642;2023-02-01T03:01:37;5.37;;;4.40;;
11086;SDS011;5597;47.588;9.642;2023-02-01T03:04:23;5.60;;;4.40;;
11086;SDS011;5597;47.588;9.642;2023-02-01T03:06:51;4.80;;;4.17;;
11086;SDS011;5597;47.588;9.642;2023-02-01T03:09:26;5.37;;;4.30;;
11086;SDS011;5597;47.588;9.642;2023-02-01T03:11:58;5.47;;;4.43;;
11086;SDS011;5597;47.588;9.642;2023-02-01T03:14:46;7.37;;;5.40;;
11086;SDS011;5597;47.588;9.642;2023-02-01T03:17:19;8.93;;;6.93;;
11086;SDS011;5597;47.588;9.642;2023-02-01T03:19:51;9.00;;;7.90;;
11086;SDS011;5597;47.588;9.642;2023-02-01T03:22:20;9.17;;;7.43;;
11086;SDS011;5597;47.588;9.642;2023-02-01T03:24:55;10.20;;;7.93;;
11086;SDS011;5597;47.588;9.642;2023-02-01T03:27:27;8.80;;;7.23;;
11086;SDS011;5597;47.588;9.642;2023-02-01T03:30:01;9.07;;;7.10;;
11086;SDS011;5597;47.588;9.642;2023-02-01T03:32:34;9.57;;;7.43;;
11086;SDS011;5597;47.588;9.642;2023-02-01T03:35:21;7.77;;;6.27;;
11086;SDS011;5597;47.588;9.642;2023-02-01T03:37:52;7.33;;;6.20;;
11086;SDS011;5597;47.588;9.642;2023-02-01T03:40:21;7.80;;;6.87;;
11086;SDS011;5597;47.588;9.642;2023-02-01T03:42:48;8.77;;;6.83;;
11086;SDS011;5597;47.588;9.642;2023-02-01T03:45:52;10.50;;;8.13;;
11086;SDS011;5597;47.588;9.642;2023-02-01T03:48:12;7.63;;;6.83;;
11086;SDS011;5597;47.588;9.642;2023-02-01T03:50:39;8.33;;;6.63;;
11086;SDS011;5597;47.588;9.642;2023-02-01T03:53:12;8.57;;;6.43;;
11086;SDS011;5597;47.588;9.642;2023-02-01T03:55:40;6.50;;;5.37;;
11086;SDS011;5597;47.588;9.642;2023-02-01T04:00:40;6.23;;;4.90;;
11086;SDS011;5597;47.588;9.642;2023-02-01T04:03:08;5.03;;;4.23;;
11086;SDS011;5597;47.588;9.642;2023-02-01T04:05:35;5.00;;;3.90;;
11086;SDS011;5597;47.588;9.642;2023-02-01T04:08:00;5.13;;;3.70;;
11086;SDS011;5597;47.588;9.642;2023-02-01T04:10:26;4.83;;;3.63;;
11086;SDS011;5597;47.588;9.642;2023-02-01T04:12:51;4.20;;;3.73;;
11086;SDS011;5597;47.588;9.642;2023-02-01T04:15:17;6.37;;;4.20;;
11086;SDS011;5597;47.588;9.642;2023-02-01T04:17:43;5.33;;;4.37;;
11086;SDS011;5597;47.588;9.642;2023-02-01T04:20:08;6.03;;;4.53;;
11086;SDS011;5597;47.588;9.642;2023-02-01T04:22:34;6.33;;;5.10;;
11086;SDS011;5597;47.588;9.642;2023-02-01T04:25:00;6.43;;;4.70;;
11086;SDS011;5597;47.588;9.642;2023-02-01T04:27:26;5.93;;;4.90;;
11086;SDS011;5597;47.588;9.642;2023-02-01T04:29:51;6.87;;;4.93;;
11086;SDS011;5597;47.588;9.642;2023-02-01T04:32:17;5.50;;;4.27;;
11086;SDS011;5597;47.588;9.642;2023-02-01T04:34:44;6.90;;;5.10;;
11086;SDS011;5597;47.588;9.642;2023-02-01T04:37:10;4.83;;;4.23;;
11086;SDS011;5597;47.588;9.642;2023-02-01T04:39:36;5.40;;;4.80;;
11086;SDS011;5597;47.588;9.642;2023-02-01T04:42:01;5.33;;;4.33;;
11086;SDS011;5597;47.588;9.642;2023-02-01T04:44:27;4.83;;;4.07;;
11086;SDS011;5597;47.588;9.642;2023-02-01T04:46:53;4.27;;;3.87;;
11086;SDS011;5597;47.588;9.642;2023-02-01T04:49:18;6.23;;;3.83;;
11086;SDS011;5597;47.588;9.642;2023-02-01T04:51:46;5.03;;;3.83;;
11086;SDS011;5597;47.588;9.642;2023-02-01T04:54:12;5.10;;;3.80;;
11086;SDS011;5597;47.588;9.642;2023-02-01T04:56:37;5.73;;;3.73;;
11086;SDS011;5597;47.588;9.642;2023-02-01T04:59:03;4.73;;;3.93;;
11086;SDS011;5597;47.588;9.642;2023-02-01T05:01:30;5.17;;;3.63;;
11086;SDS011;5597;47.588;9.642;2023-02-01T05:03:56;5.90;;;3.53;;
11086;SDS011;5597;47.588;9.642;2023-02-01T05:06:22;6.07;;;3.80;;
11086;SDS011;5597;47.588;9.642;2023-02-01T05:08:48;4.67;;;3.83;;
11086;SDS011;5597;47.588;9.642;2023-02-01T05:11:13;5.07;;;3.83;;
11086;SDS011;5597;47.588;9.642;2023-02-01T05:13:58;4.70;;;3.80;;
11086;SDS011;5597;47.588;9.642;2023-02-01T05:16:24;5.60;;;4.73;;
11086;SDS011;5597;47.588;9.642;2023-02-01T05:18:50;6.00;;;5.40;;
11086;SDS011;5597;47.588;9.642;2023-02-01T05:21:16;6.83;;;5.40;;
11086;SDS011;5597;47.588;9.642;2023-02-01T05:23:42;6.67;;;4.73;;
11086;SDS011;5597;47.588;9.642;2023-02-01T05:26:26;5.40;;;4.57;;
11086;SDS011;5597;47.588;9.642;2023-02-01T05:28:52;4.70;;;4.20;;
11086;SDS011;5597;47.588;9.642;2023-02-01T05:31:17;4.53;;;3.83;;
11086;SDS011;5597;47.588;9.642;2023-02-01T05:33:43;6.20;;;4.20;;
11086;SDS011;5597;47.588;9.642;2023-02-01T05:36:08;5.70;;;4.10;;
11086;SDS011;5597;47.588;9.642;2023-02-01T05:38:34;5.57;;;4.73;;
11086;SDS011;5597;47.588;9.642;2023-02-01T05:41:00;5.40;;;4.27;;
11086;SDS011;5597;47.588;9.642;2023-02-01T05:43:25;6.47;;;4.90;;
11086;SDS011;5597;47.588;9.642;2023-02-01T05:45:51;7.40;;;4.67;;
11086;SDS011;5597;47.588;9.642;2023-02-01T05:48:17;4.23;;;3.67;;
11086;SDS011;5597;47.588;9.642;2023-02-01T05:50:43;6.43;;;4.40;;
11086;SDS011;5597;47.588;9.642;2023-02-01T05:53:09;6.17;;;4.87;;
11086;SDS011;5597;47.588;9.642;2023-02-01T05:55:36;5.87;;;4.77;;
11086;SDS011;5597;47.588;9.642;2023-02-01T05:58:02;7.07;;;4.70;;
11086;SDS011;5597;47.588;9.642;2023-02-01T06:00:27;5.87;;;5.10;;
11086;SDS011;5597;47.588;9.642;2023-02-01T06:02:53;6.73;;;4.83;;
11086;SDS011;5597;47.588;9.642;2023-02-01T06:05:19;7.63;;;5.43;;
11086;SDS011;5597;47.588;9.642;2023-02-01T06:07:44;5.57;;;4.57;;
11086;SDS011;5597;47.588;9.642;2023-02-01T06:10:10;7.43;;;5.10;;
11086;SDS011;5597;47.588;9.642;2023-02-01T06:12:36;5.30;;;4.10;;
11086;SDS011;5597;47.588;9.642;2023-02-01T06:15:02;5.73;;;4.70;;
11086;SDS011;5597;47.588;9.642;2023-02-01T06:17:27;5.63;;;4.60;;
11086;SDS011;5597;47.588;9.642;2023-02-01T06:19:53;7.90;;;5.97;;
11086;SDS011;5597;47.588;9.642;2023-02-01T06:22:19;8.70;;;5.70;;
11086;SDS011;5597;47.588;9.642;2023-02-01T06:24:44;5.47;;;4.33;;
11086;SDS011;5597;47.588;9.642;2023-02-01T06:27:10;5.60;;;4.50;;
11086;SDS011;5597;47.588;9.642;2023-02-01T06:29:36;6.73;;;4.43;;
11086;SDS011;5597;47.588;9.642;2023-02-01T06:32:01;7.07;;;4.80;;
11086;SDS011;5597;47.588;9.642;2023-02-01T06:34:28;6.60;;;4.40;;
11086;SDS011;5597;47.588;9.642;2023-02-01T06:36:53;5.63;;;4.47;;
11086;SDS011;5597;47.588;9.642;2023-02-01T06:39:19;6.20;;;5.00;;
11086;SDS011;5597;47.588;9.642;2023-02-01T06:41:46;6.33;;;4.60;;
11086;SDS011;5597;47.588;9.642;2023-02-01T06:44:12;5.27;;;4.43;;
11086;SDS011;5597;47.588;9.642;2023-02-01T06:46:38;7.57;;;5.10;;
11086;SDS011;5597;47.588;9.642;2023-02-01T06:49:03;6.30;;;4.60;;
11086;SDS011;5597;47.588;9.642;2023-02-01T06:51:29;7.73;;;4.77;;
11086;SDS011;5597;47.588;9.642;2023-02-01T06:53:55;6.43;;;4.50;;
11086;SDS011;5597;47.588;9.642;2023-02-01T06:56:21;5.23;;;4.07;;
11086;SDS011;5597;47.588;9.642;2023-02-01T06:58:47;6.27;;;4.27;;
11086;SDS011;5597;47.588;9.642;2023-02-01T07:01:13;5.70;;;4.30;;
11086;SDS011;5597;47.588;9.642;2023-02-01T07:03:40;5.27;;;3.93;;
11086;SDS011;5597;47.588;9.642;2023-02-01T07:06:07;6.83;;;4.53;;
11086;SDS011;5597;47.588;9.642;2023-02-01T07:08:33;5.60;;;4.27;;
11086;SDS011;5597;47.588;9.642;2023-02-01T07:11:02;5.60;;;4.40;;
11086;SDS011;5597;47.588;9.642;2023-02-01T07:13:28;5.23;;;4.27;;
11086;SDS011;5597;47.588;9.642;2023-02-01T07:15:54;6.27;;;4.40;;
11086;SDS011;5597;47.588;9.642;2023-02-01T07:18:23;7.87;;;5.07;;
11086;SDS011;5597;47.588;9.642;2023-02-01T07:20:51;6.20;;;4.43;;
11086;SDS011;5597;47.588;9.642;2023-02-01T07:23:17;7.70;;;5.20;;
11086;SDS011;5597;47.588;9.642;2023-02-01T07:25:44;5.63;;;4.77;;
11086;SDS011;5597;47.588;9.642;2023-02-01T07:28:09;5.73;;;4.63;;
11086;SDS011;5597;47.588;9.642;2023-02-01T07:30:35;5.33;;;4.30;;
11086;SDS011;5597;47.588;9.642;2023-02-01T07:33:00;6.93;;;5.13;;
11086;SDS011;5597;47.588;9.642;2023-02-01T07:35:27;5.50;;;4.63;;
11086;SDS011;5597;47.588;9.642;2023-02-01T07:37:53;5.97;;;4.33;;
11086;SDS011;5597;47.588;9.642;2023-02-01T07:40:18;7.50;;;5.33;;
11086;SDS011;5597;47.588;9.642;2023-02-01T07:42:49;6.77;;;4.77;;
11086;SDS011;5597;47.588;9.642;2023-02-01T07:45:15;6.93;;;5.00;;
11086;SDS011;5597;47.588;9.642;2023-02-01T07:47:41;5.67;;;4.73;;
11086;SDS011;5597;47.588;9.642;2023-02-01T07:50:06;4.90;;;4.37;;
11086;SDS011;5597;47.588;9.642;2023-02-01T07:52:32;6.03;;;4.83;;
11086;SDS011;5597;47.588;9.642;2023-02-01T07:54:58;6.53;;;4.77;;
11086;SDS011;5597;47.588;9.642;2023-02-01T07:57:24;5.20;;;4.60;;
11086;SDS011;5597;47.588;9.642;2023-02-01T07:59:49;6.87;;;4.97;;
11086;SDS011;5597;47.588;9.642;2023-02-01T08:02:33;6.43;;;4.77;;
11086;SDS011;5597;47.588;9.642;2023-02-01T08:04:59;6.40;;;5.10;;
11086;SDS011;5597;47.588;9.642;2023-02-01T08:07:25;5.00;;;4.50;;
11086;SDS011;5597;47.588;9.642;2023-02-01T08:09:50;6.60;;;5.13;;
11086;SDS011;5597;47.588;9.642;2023-02-01T08:12:16;5.30;;;4.20;;
11086;SDS011;5597;47.588;9.642;2023-02-01T08:14:41;5.63;;;4.33;;
11086;SDS011;5597;47.588;9.642;2023-02-01T08:17:07;5.13;;;3.90;;
11086;SDS011;5597;47.588;9.642;2023-02-01T08:19:32;4.77;;;4.03;;
11086;SDS011;5597;47.588;9.642;2023-02-01T08:21:58;4.87;;;3.70;;
11086;SDS011;5597;47.588;9.642;2023-02-01T08:24:24;4.33;;;3.77;;
11086;SDS011;5597;47.588;9.642;2023-02-01T08:26:50;5.10;;;3.73;;
11086;SDS011;5597;47.588;9.642;2023-02-01T08:29:15;4.07;;;3.40;;
11086;SDS011;5597;47.588;9.642;2023-02-01T08:31:41;6.07;;;4.20;;
11086;SDS011;5597;47.588;9.642;2023-02-01T08:34:08;4.63;;;3.47;;
11086;SDS011;5597;47.588;9.642;2023-02-01T08:36:33;5.20;;;3.73;;
11086;SDS011;5597;47.588;9.642;2023-02-01T08:38:59;5.27;;;3.50;;
11086;SDS011;5597;47.588;9.642;2023-02-01T08:41:27;5.07;;;4.20;;
11086;SDS011;5597;47.588;9.642;2023-02-01T08:43:55;5.70;;;4.07;;
11086;SDS011;5597;47.588;9.642;2023-02-01T08:46:21;4.57;;;3.70;;
11086;SDS011;5597;47.588;9.642;2023-02-01T08:48:48;4.27;;;3.70;;
11086;SDS011;5597;47.588;9.642;2023-02-01T08:51:15;7.00;;;3.57;;
11086;SDS011;5597;47.588;9.642;2023-02-01T08:53:41;5.53;;;4.13;;
11086;SDS011;5597;47.588;9.642;2023-02-01T08:56:08;4.53;;;3.47;;
11086;SDS011;5597;47.588;9.642;2023-02-01T08:58:35;4.77;;;3.70;;
11086;SDS011;5597;47.588;9.642;2023-02-01T09:01:04;5.90;;;4.70;;
11086;SDS011;5597;47.588;9.642;2023-02-01T09:03:31;5.73;;;3.93;;
11086;SDS011;5597;47.588;9.642;2023-02-01T09:06:01;5.37;;;3.60;;
11086;SDS011;5597;47.588;9.642;2023-02-01T09:08:31;5.83;;;3.80;;
11086;SDS011;5597;47.588;9.642;2023-02-01T09:11:00;5.60;;;3.57;;
11086;SDS011;5597;47.588;9.642;2023-02-01T09:13:27;4.10;;;3.60;;
11086;SDS011;5597;47.588;9.642;2023-02-01T09:15:53;4.43;;;3.70;;
11086;SDS011;5597;47.588;9.642;2023-02-01T09:18:18;4.30;;;3.23;;
11086;SDS011;5597;47.588;9.642;2023-02-01T09:20:44;5.77;;;4.23;;
11086;SDS011;5597;47.588;9.642;2023-02-01T09:23:10;5.33;;;3.83;;
11086;SDS011;5597;47.588;9.642;2023-02-01T09:25:36;3.60;;;3.10;;
11086;SDS011;5597;47.588;9.642;2023-02-01T09:28:03;4.60;;;3.53;;
11086;SDS011;5597;47.588;9.642;2023-02-01T09:30:31;3.97;;;3.30;;
11086;SDS011;5597;47.588;9.642;2023-02-01T09:32:57;5.30;;;3.50;;
11086;SDS011;5597;47.588;9.642;2023-02-01T09:35:23;3.77;;;3.20;;
11086;SDS011;5597;47.588;9.642;2023-02-01T09:37:49;4.23;;;3.13;;
11086;SDS011;5597;47.588;9.642;2023-02-01T09:40:15;3.80;;;3.40;;
11086;SDS011;5597;47.588;9.642;2023-02-01T09:43:46;4.80;;;3.40;;
11086;SDS011;5597;47.588;9.642;2023-02-01T09:48:56;4.00;;;3.30;;
11086;SDS011;5597;47.588;9.642;2023-02-01T09:51:32;4.77;;;3.33;;
11086;SDS011;5597;47.588;9.642;2023-02-01T09:56:59;4.40;;;3.10;;
11086;SDS011;5597;47.588;9.642;2023-02-01T10:02:30;4.53;;;3.30;;
11086;SDS011;5597;47.588;9.642;2023-02-01T10:04:58;3.13;;;2.67;;
11086;SDS011;5597;47.588;9.642;2023-02-01T10:12:58;3.17;;;2.83;;
11086;SDS011;5597;47.588;9.642;2023-02-01T10:21:17;3.77;;;2.90;;
11086;SDS011;5597;47.588;9.642;2023-02-01T10:26:36;3.37;;;2.83;;
11086;SDS011;5597;47.588;9.642;2023-02-01T10:29:11;3.80;;;3.00;;
11086;SDS011;5597;47.588;9.642;2023-02-01T10:31:42;3.10;;;2.80;;
11086;SDS011;5597;47.588;9.642;2023-02-01T10:34:21;4.40;;;3.27;;
11086;SDS011;5597;47.588;9.642;2023-02-01T10:36:55;5.20;;;2.77;;
11086;SDS011;5597;47.588;9.642;2023-02-01T10:39:26;3.70;;;2.83;;
11086;SDS011;5597;47.588;9.642;2023-02-01T10:41:51;3.07;;;2.57;;
11086;SDS011;5597;47.588;9.642;2023-02-01T10:44:23;3.40;;;2.53;;
11086;SDS011;5597;47.588;9.642;2023-02-01T10:46:51;3.17;;;2.63;;
11086;SDS011;5597;47.588;9.642;2023-02-01T10:49:18;3.33;;;2.60;;
11086;SDS011;5597;47.588;9.642;2023-02-01T10:54:39;3.43;;;2.70;;
11086;SDS011;5597;47.588;9.642;2023-02-01T10:57:20;3.67;;;2.67;;
11086;SDS011;5597;47.588;9.642;2023-02-01T10:59:49;4.83;;;2.63;;
11086;SDS011;5597;47.588;9.642;2023-02-01T11:02:20;4.23;;;3.07;;
11086;SDS011;5597;47.588;9.642;2023-02-01T11:05:07;5.80;;;3.27;;
11086;SDS011;5597;47.588;9.642;2023-02-01T11:07:37;3.43;;;3.00;;
11086;SDS011;5597;47.588;9.642;2023-02-01T11:10:04;3.00;;;2.60;;
11086;SDS011;5597;47.588;9.642;2023-02-01T11:12:32;3.67;;;3.00;;
11086;SDS011;5597;47.588;9.642;2023-02-01T11:15:01;4.70;;;3.17;;
11086;SDS011;5597;47.588;9.642;2023-02-01T11:17:48;6.70;;;3.00;;
11086;SDS011;5597;47.588;9.642;2023-02-01T11:22:56;4.17;;;2.70;;
11086;SDS011;5597;47.588;9.642;2023-02-01T11:25:23;3.07;;;2.73;;
11086;SDS011;5597;47.588;9.642;2023-02-01T11:27:50;3.13;;;2.37;;
11086;SDS011;5597;47.588;9.642;2023-02-01T11:30:38;4.93;;;2.40;;
11086;SDS011;5597;47.588;9.642;2023-02-01T11:33:06;2.67;;;2.27;;
11086;SDS011;5597;47.588;9.642;2023-02-01T11:35:39;5.30;;;2.80;;
11086;SDS011;5597;47.588;9.642;2023-02-01T11:38:25;5.17;;;2.80;;
11086;SDS011;5597;47.588;9.642;2023-02-01T11:40:52;2.80;;;2.37;;
11086;SDS011;5597;47.588;9.642;2023-02-01T11:43:24;2.87;;;2.30;;
11086;SDS011;5597;47.588;9.642;2023-02-01T11:45:59;5.33;;;2.43;;
11086;SDS011;5597;47.588;9.642;2023-02-01T11:48:28;2.80;;;2.30;;
11086;SDS011;5597;47.588;9.642;2023-02-01T12:13:51;2.27;;;1.90;;
11086;SDS011;5597;47.588;9.642;2023-02-01T12:21:52;3.53;;;1.83;;
11086;SDS011;5597;47.588;9.642;2023-02-01T12:37:55;2.63;;;2.07;;
11086;SDS011;5597;47.588;9.642;2023-02-01T12:43:27;5.83;;;3.50;;
11086;SDS011;5597;47.588;9.642;2023-02-01T12:46:16;3.47;;;2.67;;
11086;SDS011;5597;47.588;9.642;2023-02-01T12:49:00;3.10;;;2.47;;
11086;SDS011;5597;47.588;9.642;2023-02-01T12:51:32;6.47;;;2.97;;
11086;SDS011;5597;47.588;9.642;2023-02-01T12:54:12;4.13;;;2.57;;
11086;SDS011;5597;47.588;9.642;2023-02-01T12:59:47;5.10;;;2.53;;
11086;SDS011;5597;47.588;9.642;2023-02-01T13:05:20;3.93;;;2.67;;
11086;SDS011;5597;47.588;9.642;2023-02-01T13:10:32;6.50;;;3.70;;
11086;SDS011;5597;47.588;9.642;2023-02-01T13:13:11;2.77;;;2.40;;
11086;SDS011;5597;47.588;9.642;2023-02-01T13:16:02;3.67;;;2.33;;
11086;SDS011;5597;47.588;9.642;2023-02-01T13:18:41;7.93;;;2.63;;
11086;SDS011;5597;47.588;9.642;2023-02-01T13:21:12;6.07;;;2.87;;
11086;SDS011;5597;47.588;9.642;2023-02-01T13:23:46;4.30;;;2.00;;
11086;SDS011;5597;47.588;9.642;2023-02-01T13:26:13;3.40;;;2.23;;
11086;SDS011;5597;47.588;9.642;2023-02-01T13:42:53;2.93;;;2.23;;
11086;SDS011;5597;47.588;9.642;2023-02-01T13:45:26;4.83;;;2.30;;
11086;SDS011;5597;47.588;9.642;2023-02-01T13:47:57;2.20;;;2.00;;
11086;SDS011;5597;47.588;9.642;2023-02-01T13:50:35;4.17;;;2.20;;
11086;SDS011;5597;47.588;9.642;2023-02-01T13:55:38;4.27;;;2.10;;
11086;SDS011;5597;47.588;9.642;2023-02-01T13:58:22;6.00;;;2.60;;
11086;SDS011;5597;47.588;9.642;2023-02-01T14:03:57;5.17;;;2.50;;
11086;SDS011;5597;47.588;9.642;2023-02-01T14:11:40;6.77;;;2.87;;
11086;SDS011;5597;47.588;9.642;2023-02-01T14:16:39;4.23;;;3.17;;
11086;SDS011;5597;47.588;9.642;2023-02-01T14:19:17;5.00;;;3.20;;
11086;SDS011;5597;47.588;9.642;2023-02-01T14:21:54;4.33;;;3.00;;
11086;SDS011;5597;47.588;9.642;2023-02-01T14:24:29;6.90;;;3.27;;
11086;SDS011;5597;47.588;9.642;2023-02-01T14:26:58;5.77;;;2.93;;
11086;SDS011;5597;47.588;9.642;2023-02-01T14:29:27;5.13;;;2.77;;
11086;SDS011;5597;47.588;9.642;2023-02-01T14:42:20;6.03;;;2.40;;
11086;SDS011;5597;47.588;9.642;2023-02-01T14:50:42;6.40;;;2.47;;
11086;SDS011;5597;47.588;9.642;2023-02-01T14:55:50;4.53;;;2.20;;
11086;SDS011;5597;47.588;9.642;2023-02-01T14:58:32;4.70;;;2.30;;
11086;SDS011;5597;47.588;9.642;2023-02-01T15:06:26;5.17;;;2.50;;
11086;SDS011;5597;47.588;9.642;2023-02-01T15:09:07;4.47;;;2.13;;
11086;SDS011;5597;47.588;9.642;2023-02-01T15:14:36;4.73;;;2.20;;
11086;SDS011;5597;47.588;9.642;2023-02-01T15:19:52;5.90;;;2.37;;
11086;SDS011;5597;47.588;9.642;2023-02-01T15:22:19;5.23;;;1.90;;
11086;SDS011;5597;47.588;9.642;2023-02-01T15:24:50;5.47;;;2.33;;
11086;SDS011;5597;47.588;9.642;2023-02-01T15:27:20;5.03;;;3.10;;
11086;SDS011;5597;47.588;9.642;2023-02-01T15:29:46;6.10;;;2.97;;
11086;SDS011;5597;47.588;9.642;2023-02-01T15:32:28;6.23;;;2.40;;
11086;SDS011;5597;47.588;9.642;2023-02-01T15:35:00;8.17;;;4.13;;
11086;SDS011;5597;47.588;9.642;2023-02-01T15:37:26;6.17;;;2.30;;
11086;SDS011;5597;47.588;9.642;2023-02-01T15:42:47;6.83;;;2.60;;
11086;SDS011;5597;47.588;9.642;2023-02-01T15:45:18;8.17;;;2.50;;
11086;SDS011;5597;47.588;9.642;2023-02-01T15:47:49;5.23;;;2.40;;
11086;SDS011;5597;47.588;9.642;2023-02-01T15:50:17;4.83;;;2.63;;
11086;SDS011;5597;47.588;9.642;2023-02-01T15:52:45;6.20;;;2.67;;
11086;SDS011;5597;47.588;9.642;2023-02-01T15:55:23;4.73;;;2.27;;
11086;SDS011;5597;47.588;9.642;2023-02-01T15:58:08;4.23;;;2.10;;
11086;SDS011;5597;47.588;9.642;2023-02-01T16:00:50;4.73;;;2.17;;
11086;SDS011;5597;47.588;9.642;2023-02-01T16:06:09;7.30;;;2.20;;
11086;SDS011;5597;47.588;9.642;2023-02-01T16:11:40;4.80;;;2.00;;
11086;SDS011;5597;47.588;9.642;2023-02-01T16:14:12;5.63;;;2.40;;
11086;SDS011;5597;47.588;9.642;2023-02-01T16:16:38;7.13;;;3.00;;
11086;SDS011;5597;47.588;9.642;2023-02-01T16:19:04;8.63;;;3.23;;
11086;SDS011;5597;47.588;9.642;2023-02-01T16:21:29;7.53;;;2.97;;
11086;SDS011;5597;47.588;9.642;2023-02-01T16:23:55;4.60;;;2.60;;
11086;SDS011;5597;47.588;9.642;2023-02-01T16:26:20;5.37;;;2.40;;
11086;SDS011;5597;47.588;9.642;2023-02-01T16:28:47;4.60;;;2.13;;
11086;SDS011;5597;47.588;9.642;2023-02-01T16:31:13;5.73;;;2.30;;
11086;SDS011;5597;47.588;9.642;2023-02-01T16:33:51;5.70;;;2.20;;
11086;SDS011;5597;47.588;9.642;2023-02-01T16:36:17;6.03;;;1.97;;
11086;SDS011;5597;47.588;9.642;2023-02-01T16:38:43;5.00;;;2.40;;
11086;SDS011;5597;47.588;9.642;2023-02-01T16:41:11;5.63;;;2.00;;
11086;SDS011;5597;47.588;9.642;2023-02-01T16:43:38;5.93;;;3.23;;
11086;SDS011;5597;47.588;9.642;2023-02-01T16:46:04;3.87;;;2.10;;
11086;SDS011;5597;47.588;9.642;2023-02-01T16:48:35;5.57;;;2.10;;
11086;SDS011;5597;47.588;9.642;2023-02-01T16:51:04;6.27;;;2.43;;
11086;SDS011;5597;47.588;9.642;2023-02-01T16:53:34;5.27;;;2.40;;
11086;SDS011;5597;47.588;9.642;2023-02-01T16:56:00;4.60;;;2.23;;
11086;SDS011;5597;47.588;9.642;2023-02-01T16:58:27;5.47;;;2.53;;
11086;SDS011;5597;47.588;9.642;2023-02-01T17:00:53;7.10;;;2.67;;
11086;SDS011;5597;47.588;9.642;2023-02-01T17:03:19;6.10;;;2.47;;
11086;SDS011;5597;47.588;9.642;2023-02-01T17:05:50;7.03;;;2.60;;
11086;SDS011;5597;47.588;9.642;2023-02-01T17:08:18;4.13;;;2.10;;
11086;SDS011;5597;47.588;9.642;2023-02-01T17:10:51;4.60;;;2.30;;
11086;SDS011;5597;47.588;9.642;2023-02-01T17:13:16;6.40;;;2.33;;
11086;SDS011;5597;47.588;9.642;2023-02-01T17:15:49;5.17;;;2.43;;
11086;SDS011;5597;47.588;9.642;2023-02-01T17:18:38;4.33;;;2.30;;
11086;SDS011;5597;47.588;9.642;2023-02-01T17:21:04;7.70;;;2.30;;
11086;SDS011;5597;47.588;9.642;2023-02-01T17:23:31;3.80;;;1.90;;
11086;SDS011;5597;47.588;9.642;2023-02-01T17:25:57;7.03;;;2.40;;
11086;SDS011;5597;47.588;9.642;2023-02-01T17:28:23;4.57;;;2.20;;
11086;SDS011;5597;47.588;9.642;2023-02-01T17:30:48;4.67;;;2.03;;
11086;SDS011;5597;47.588;9.642;2023-02-01T17:33:56;6.13;;;2.70;;
11086;SDS011;5597;47.588;9.642;2023-02-01T17:36:03;7.60;;;2.30;;
11086;SDS011;5597;47.588;9.642;2023-02-01T17:38:30;5.33;;;2.60;;
11086;SDS011;5597;47.588;9.642;2023-02-01T17:40:56;4.50;;;2.20;;
11086;SDS011;5597;47.588;9.642;2023-02-01T17:43:22;6.90;;;2.17;;
11086;SDS011;5597;47.588;9.642;2023-02-01T17:48:21;4.37;;;2.23;;
11086;SDS011;5597;47.588;9.642;2023-02-01T17:50:48;8.07;;;2.40;;
11086;SDS011;5597;47.588;9.642;2023-02-01T17:53:19;6.07;;;1.90;;
11086;SDS011;5597;47.588;9.642;2023-02-01T17:55:48;5.87;;;2.90;;
11086;SDS011;5597;47.588;9.642;2023-02-01T17:58:14;6.63;;;2.67;;
11086;SDS011;5597;47.588;9.642;2023-02-01T18:00:41;5.67;;;2.23;;
11086;SDS011;5597;47.588;9.642;2023-02-01T18:05:53;5.83;;;2.00;;
11086;SDS011;5597;47.588;9.642;2023-02-01T18:08:24;5.73;;;2.10;;